sensor_id;sensor_type;location;lat;lon;timestamp;P1;durP1;ratioP1;P2;durP2;ratioP2
28836;SDS011;50669;50.982;11.022;2022-08-01T00:01:24;3.78;;;3.47;;
28836;SDS011;50669;50.982;11.022;2022-08-01T00:03:52;7.65;;;3.08;;
28836;SDS011;50669;50.982;11.022;2022-08-01T00:06:19;3.70;;;3.40;;
28836;SDS011;50669;50.982;11.022;2022-08-01T00:08:45;3.67;;;2.97;;
28836;SDS011;50669;50.982;11.022;2022-08-01T00:11:10;3.22;;;3.03;;
28836;SDS011;50669;50.982;11.022;2022-08-01T00:13:39;2.60;;;2.40;;
28836;SDS011;50669;50.982;11.022;2022-08-01T00:16:04;3.95;;;2.67;;
28836;SDS011;50669;50.982;11.022;2022-08-01T00:18:30;4.13;;;2.47;;
28836;SDS011;50669;50.982;11.022;2022-08-01T00:20:59;2.95;;;2.65;;
28836;SDS011;50669;50.982;11.022;2022-08-01T00:23:27;4.18;;;3.03;;
28836;SDS011;50669;50.982;11.022;2022-08-01T00:25:52;2.78;;;2.58;;
28836;SDS011;50669;50.982;11.022;2022-08-01T00:28:18;4.57;;;2.65;;
28836;SDS011;50669;50.982;11.022;2022-08-01T00:30:46;3.05;;;2.42;;
28836;SDS011;50669;50.982;11.022;2022-08-01T00:33:11;2.70;;;2.50;;
28836;SDS011;50669;50.982;11.022;2022-08-01T00:35:39;3.58;;;2.70;;
28836;SDS011;50669;50.982;11.022;2022-08-01T00:38:05;3.45;;;2.92;;
28836;SDS011;50669;50.982;11.022;2022-08-01T00:40:31;3.20;;;2.85;;
28836;SDS011;50669;50.982;11.022;2022-08-01T00:42:59;2.78;;;2.58;;
28836;SDS011;50669;50.982;11.022;2022-08-01T00:45:27;2.75;;;2.55;;
28836;SDS011;50669;50.982;11.022;2022-08-01T00:47:55;2.63;;;2.38;;
28836;SDS011;50669;50.982;11.022;2022-08-01T00:50:23;3.30;;;3.00;;
28836;SDS011;50669;50.982;11.022;2022-08-01T00:52:49;3.30;;;2.90;;
28836;SDS011;50669;50.982;11.022;2022-08-01T00:55:18;3.20;;;2.90;;
28836;SDS011;50669;50.982;11.022;2022-08-01T00:57:49;3.92;;;3.22;;
28836;SDS011;50669;50.982;11.022;2022-08-01T01:00:18;2.65;;;2.45;;
28836;SDS011;50669;50.982;11.022;2022-08-01T01:02:49;3.25;;;2.88;;
28836;SDS011;50669;50.982;11.022;2022-08-01T01:05:14;3.20;;;2.90;;
28836;SDS011;50669;50.982;11.022;2022-08-01T01:07:44;4.85;;;3.00;;
28836;SDS011;50669;50.982;11.022;2022-08-01T01:13:00;4.63;;;3.00;;
28836;SDS011;50669;50.982;11.022;2022-08-01T01:18:23;3.47;;;3.17;;
28836;SDS011;50669;50.982;11.022;2022-08-01T01:34:49;4.32;;;3.17;;
28836;SDS011;50669;50.982;11.022;2022-08-01T01:37:19;3.42;;;2.92;;
28836;SDS011;50669;50.982;11.022;2022-08-01T01:39:48;3.40;;;3.10;;
28836;SDS011;50669;50.982;11.022;2022-08-01T01:42:18;3.65;;;3.20;;
28836;SDS011;50669;50.982;11.022;2022-08-01T01:44:45;2.80;;;2.60;;
28836;SDS011;50669;50.982;11.022;2022-08-01T01:47:13;3.45;;;3.15;;
28836;SDS011;50669;50.982;11.022;2022-08-01T01:49:40;3.30;;;3.00;;
28836;SDS011;50669;50.982;11.022;2022-08-01T01:52:10;3.58;;;3.08;;
28836;SDS011;50669;50.982;11.022;2022-08-01T01:54:42;3.28;;;2.85;;
28836;SDS011;50669;50.982;11.022;2022-08-01T01:57:12;3.53;;;3.20;;
28836;SDS011;50669;50.982;11.022;2022-08-01T01:59:41;3.45;;;3.15;;
28836;SDS011;50669;50.982;11.022;2022-08-01T02:02:09;3.83;;;3.00;;
28836;SDS011;50669;50.982;11.022;2022-08-01T02:04:38;3.20;;;2.90;;
28836;SDS011;50669;50.982;11.022;2022-08-01T02:07:07;3.60;;;2.90;;
28836;SDS011;50669;50.982;11.022;2022-08-01T02:09:35;3.40;;;3.10;;
28836;SDS011;50669;50.982;11.022;2022-08-01T02:12:02;3.63;;;3.33;;
28836;SDS011;50669;50.982;11.022;2022-08-01T02:14:30;4.78;;;3.17;;
28836;SDS011;50669;50.982;11.022;2022-08-01T02:17:00;2.80;;;2.60;;
28836;SDS011;50669;50.982;11.022;2022-08-01T02:19:28;4.15;;;3.15;;
28836;SDS011;50669;50.982;11.022;2022-08-01T02:21:56;4.20;;;3.10;;
28836;SDS011;50669;50.982;11.022;2022-08-01T02:27:07;3.55;;;2.78;;
28836;SDS011;50669;50.982;11.022;2022-08-01T02:29:37;3.60;;;2.70;;
28836;SDS011;50669;50.982;11.022;2022-08-01T02:32:07;2.85;;;2.65;;
28836;SDS011;50669;50.982;11.022;2022-08-01T02:34:49;2.75;;;2.55;;
28836;SDS011;50669;50.982;11.022;2022-08-01T02:37:17;3.42;;;2.67;;
28836;SDS011;50669;50.982;11.022;2022-08-01T02:39:46;3.22;;;2.92;;
28836;SDS011;50669;50.982;11.022;2022-08-01T02:42:15;3.20;;;2.90;;
28836;SDS011;50669;50.982;11.022;2022-08-01T02:44:46;2.90;;;2.70;;
28836;SDS011;50669;50.982;11.022;2022-08-01T02:47:13;3.20;;;2.90;;
28836;SDS011;50669;50.982;11.022;2022-08-01T02:49:45;4.43;;;3.72;;
28836;SDS011;50669;50.982;11.022;2022-08-01T02:52:14;3.30;;;3.00;;
28836;SDS011;50669;50.982;11.022;2022-08-01T02:54:43;5.20;;;4.70;;
28836;SDS011;50669;50.982;11.022;2022-08-01T02:57:11;3.65;;;3.33;;
28836;SDS011;50669;50.982;11.022;2022-08-01T02:59:39;3.60;;;3.30;;
28836;SDS011;50669;50.982;11.022;2022-08-01T03:02:07;3.45;;;3.15;;
28836;SDS011;50669;50.982;11.022;2022-08-01T03:04:35;4.43;;;3.17;;
28836;SDS011;50669;50.982;11.022;2022-08-01T03:07:04;4.20;;;3.25;;
28836;SDS011;50669;50.982;11.022;2022-08-01T03:09:32;5.50;;;3.25;;
28836;SDS011;50669;50.982;11.022;2022-08-01T03:12:01;4.00;;;3.67;;
28836;SDS011;50669;50.982;11.022;2022-08-01T03:14:28;3.47;;;3.17;;
28836;SDS011;50669;50.982;11.022;2022-08-01T03:16:57;5.05;;;3.53;;
28836;SDS011;50669;50.982;11.022;2022-08-01T03:19:25;4.15;;;3.72;;
28836;SDS011;50669;50.982;11.022;2022-08-01T03:21:56;5.70;;;3.80;;
28836;SDS011;50669;50.982;11.022;2022-08-01T03:24:30;5.93;;;3.58;;
28836;SDS011;50669;50.982;11.022;2022-08-01T03:26:58;4.45;;;4.05;;
28836;SDS011;50669;50.982;11.022;2022-08-01T03:29:25;4.20;;;3.88;;
28836;SDS011;50669;50.982;11.022;2022-08-01T03:31:52;4.90;;;3.97;;
28836;SDS011;50669;50.982;11.022;2022-08-01T03:34:21;3.55;;;3.25;;
28836;SDS011;50669;50.982;11.022;2022-08-01T03:36:59;3.72;;;3.42;;
28836;SDS011;50669;50.982;11.022;2022-08-01T03:39:34;3.70;;;3.10;;
28836;SDS011;50669;50.982;11.022;2022-08-01T03:42:09;3.78;;;3.47;;
28836;SDS011;50669;50.982;11.022;2022-08-01T03:44:40;4.20;;;3.80;;
28836;SDS011;50669;50.982;11.022;2022-08-01T03:47:07;4.30;;;3.90;;
28836;SDS011;50669;50.982;11.022;2022-08-01T03:49:41;3.42;;;3.13;;
28836;SDS011;50669;50.982;11.022;2022-08-01T03:52:14;3.65;;;3.22;;
28836;SDS011;50669;50.982;11.022;2022-08-01T03:54:45;3.30;;;3.00;;
28836;SDS011;50669;50.982;11.022;2022-08-01T03:57:12;4.38;;;3.20;;
28836;SDS011;50669;50.982;11.022;2022-08-01T03:59:40;3.92;;;3.47;;
28836;SDS011;50669;50.982;11.022;2022-08-01T04:02:07;6.70;;;4.50;;
28836;SDS011;50669;50.982;11.022;2022-08-01T04:04:33;4.25;;;3.38;;
28836;SDS011;50669;50.982;11.022;2022-08-01T04:07:02;5.65;;;3.42;;
28836;SDS011;50669;50.982;11.022;2022-08-01T04:09:33;3.50;;;3.20;;
28836;SDS011;50669;50.982;11.022;2022-08-01T04:12:01;4.63;;;3.10;;
28836;SDS011;50669;50.982;11.022;2022-08-01T04:14:28;3.45;;;3.15;;
28836;SDS011;50669;50.982;11.022;2022-08-01T04:16:56;5.78;;;3.60;;
28836;SDS011;50669;50.982;11.022;2022-08-01T04:19:24;3.15;;;2.85;;
28836;SDS011;50669;50.982;11.022;2022-08-01T04:21:51;4.65;;;3.03;;
28836;SDS011;50669;50.982;11.022;2022-08-01T04:24:20;3.35;;;3.05;;
28836;SDS011;50669;50.982;11.022;2022-08-01T04:26:50;3.67;;;3.25;;
28836;SDS011;50669;50.982;11.022;2022-08-01T04:29:17;3.85;;;3.03;;
28836;SDS011;50669;50.982;11.022;2022-08-01T04:31:46;5.47;;;3.70;;
28836;SDS011;50669;50.982;11.022;2022-08-01T04:34:14;3.30;;;3.00;;
28836;SDS011;50669;50.982;11.022;2022-08-01T04:36:42;3.80;;;3.38;;
28836;SDS011;50669;50.982;11.022;2022-08-01T04:39:10;3.70;;;3.20;;
28836;SDS011;50669;50.982;11.022;2022-08-01T04:41:36;3.60;;;3.30;;
28836;SDS011;50669;50.982;11.022;2022-08-01T04:44:04;3.67;;;3.25;;
28836;SDS011;50669;50.982;11.022;2022-08-01T04:46:30;4.63;;;3.00;;
28836;SDS011;50669;50.982;11.022;2022-08-01T04:48:57;5.07;;;3.20;;
28836;SDS011;50669;50.982;11.022;2022-08-01T04:51:23;3.95;;;2.65;;
28836;SDS011;50669;50.982;11.022;2022-08-01T04:53:49;2.80;;;2.58;;
28836;SDS011;50669;50.982;11.022;2022-08-01T04:56:16;4.20;;;2.90;;
28836;SDS011;50669;50.982;11.022;2022-08-01T04:58:42;5.57;;;3.78;;
28836;SDS011;50669;50.982;11.022;2022-08-01T05:01:08;3.63;;;2.97;;
28836;SDS011;50669;50.982;11.022;2022-08-01T05:03:34;2.88;;;2.55;;
28836;SDS011;50669;50.982;11.022;2022-08-01T05:06:02;7.82;;;4.53;;
28836;SDS011;50669;50.982;11.022;2022-08-01T05:08:28;3.75;;;2.80;;
28836;SDS011;50669;50.982;11.022;2022-08-01T05:10:54;4.32;;;2.85;;
28836;SDS011;50669;50.982;11.022;2022-08-01T05:13:20;2.72;;;2.33;;
28836;SDS011;50669;50.982;11.022;2022-08-01T05:15:46;3.28;;;2.33;;
28836;SDS011;50669;50.982;11.022;2022-08-01T05:18:11;5.20;;;2.78;;
28836;SDS011;50669;50.982;11.022;2022-08-01T05:20:37;3.08;;;2.75;;
28836;SDS011;50669;50.982;11.022;2022-08-01T05:23:05;3.92;;;2.53;;
28836;SDS011;50669;50.982;11.022;2022-08-01T05:25:34;5.88;;;2.22;;
28836;SDS011;50669;50.982;11.022;2022-08-01T05:27:59;4.65;;;2.45;;
28836;SDS011;50669;50.982;11.022;2022-08-01T05:30:27;4.25;;;2.30;;
28836;SDS011;50669;50.982;11.022;2022-08-01T05:32:54;4.65;;;2.60;;
28836;SDS011;50669;50.982;11.022;2022-08-01T05:35:19;2.95;;;2.10;;
28836;SDS011;50669;50.982;11.022;2022-08-01T05:37:47;4.10;;;2.00;;
28836;SDS011;50669;50.982;11.022;2022-08-01T05:40:15;3.45;;;2.00;;
28836;SDS011;50669;50.982;11.022;2022-08-01T05:42:43;2.15;;;1.95;;
28836;SDS011;50669;50.982;11.022;2022-08-01T05:45:09;2.97;;;2.30;;
28836;SDS011;50669;50.982;11.022;2022-08-01T05:47:35;3.15;;;2.40;;
28836;SDS011;50669;50.982;11.022;2022-08-01T05:50:01;2.50;;;2.15;;
28836;SDS011;50669;50.982;11.022;2022-08-01T05:52:26;2.63;;;2.20;;
28836;SDS011;50669;50.982;11.022;2022-08-01T05:54:53;3.90;;;2.67;;
28836;SDS011;50669;50.982;11.022;2022-08-01T05:57:19;2.97;;;2.42;;
28836;SDS011;50669;50.982;11.022;2022-08-01T05:59:44;3.50;;;2.30;;
28836;SDS011;50669;50.982;11.022;2022-08-01T06:02:10;4.03;;;2.60;;
28836;SDS011;50669;50.982;11.022;2022-08-01T06:04:38;3.15;;;2.80;;
28836;SDS011;50669;50.982;11.022;2022-08-01T06:07:04;3.35;;;2.60;;
28836;SDS011;50669;50.982;11.022;2022-08-01T06:09:31;2.55;;;2.25;;
28836;SDS011;50669;50.982;11.022;2022-08-01T06:11:59;3.65;;;2.97;;
28836;SDS011;50669;50.982;11.022;2022-08-01T06:14:25;3.15;;;2.85;;
28836;SDS011;50669;50.982;11.022;2022-08-01T06:16:51;4.88;;;3.05;;
28836;SDS011;50669;50.982;11.022;2022-08-01T06:19:16;4.40;;;2.72;;
28836;SDS011;50669;50.982;11.022;2022-08-01T06:21:42;3.78;;;3.30;;
28836;SDS011;50669;50.982;11.022;2022-08-01T06:24:11;3.85;;;3.10;;
28836;SDS011;50669;50.982;11.022;2022-08-01T06:26:36;3.30;;;2.67;;
28836;SDS011;50669;50.982;11.022;2022-08-01T06:29:02;4.28;;;2.85;;
28836;SDS011;50669;50.982;11.022;2022-08-01T06:31:31;3.20;;;2.90;;
28836;SDS011;50669;50.982;11.022;2022-08-01T06:33:59;3.08;;;2.72;;
28836;SDS011;50669;50.982;11.022;2022-08-01T06:36:24;4.28;;;3.00;;
28836;SDS011;50669;50.982;11.022;2022-08-01T06:38:50;1.90;;;1.80;;
28836;SDS011;50669;50.982;11.022;2022-08-01T06:41:16;2.20;;;1.80;;
28836;SDS011;50669;50.982;11.022;2022-08-01T06:43:44;2.50;;;1.80;;
28836;SDS011;50669;50.982;11.022;2022-08-01T06:46:10;3.70;;;1.90;;
28836;SDS011;50669;50.982;11.022;2022-08-01T06:48:38;2.72;;;1.90;;
28836;SDS011;50669;50.982;11.022;2022-08-01T06:51:06;4.40;;;2.17;;
28836;SDS011;50669;50.982;11.022;2022-08-01T06:53:37;2.97;;;2.00;;
28836;SDS011;50669;50.982;11.022;2022-08-01T06:56:05;4.15;;;1.98;;
28836;SDS011;50669;50.982;11.022;2022-08-01T06:58:33;1.88;;;1.60;;
28836;SDS011;50669;50.982;11.022;2022-08-01T07:00:59;2.67;;;1.45;;
28836;SDS011;50669;50.982;11.022;2022-08-01T07:03:26;1.25;;;0.98;;
28836;SDS011;50669;50.982;11.022;2022-08-01T07:05:52;2.65;;;1.52;;
28836;SDS011;50669;50.982;11.022;2022-08-01T07:08:18;1.95;;;1.50;;
28836;SDS011;50669;50.982;11.022;2022-08-01T07:10:43;2.92;;;1.48;;
28836;SDS011;50669;50.982;11.022;2022-08-01T07:13:11;2.20;;;1.52;;
28836;SDS011;50669;50.982;11.022;2022-08-01T07:15:37;1.75;;;1.60;;
28836;SDS011;50669;50.982;11.022;2022-08-01T07:18:05;1.48;;;1.25;;
28836;SDS011;50669;50.982;11.022;2022-08-01T07:20:30;3.45;;;1.50;;
28836;SDS011;50669;50.982;11.022;2022-08-01T07:22:56;1.55;;;1.38;;
28836;SDS011;50669;50.982;11.022;2022-08-01T07:25:22;2.55;;;1.45;;
28836;SDS011;50669;50.982;11.022;2022-08-01T07:27:47;2.40;;;1.50;;
28836;SDS011;50669;50.982;11.022;2022-08-01T07:30:15;3.03;;;1.80;;
28836;SDS011;50669;50.982;11.022;2022-08-01T07:32:41;1.85;;;1.60;;
28836;SDS011;50669;50.982;11.022;2022-08-01T07:35:06;2.72;;;1.85;;
28836;SDS011;50669;50.982;11.022;2022-08-01T07:37:35;2.75;;;2.15;;
28836;SDS011;50669;50.982;11.022;2022-08-01T07:40:01;2.60;;;1.73;;
28836;SDS011;50669;50.982;11.022;2022-08-01T07:42:29;4.25;;;1.75;;
28836;SDS011;50669;50.982;11.022;2022-08-01T07:44:59;1.70;;;1.60;;
28836;SDS011;50669;50.982;11.022;2022-08-01T07:47:25;1.95;;;1.50;;
28836;SDS011;50669;50.982;11.022;2022-08-01T07:49:51;3.08;;;1.65;;
28836;SDS011;50669;50.982;11.022;2022-08-01T07:52:26;3.55;;;2.00;;
28836;SDS011;50669;50.982;11.022;2022-08-01T07:54:55;3.28;;;1.90;;
28836;SDS011;50669;50.982;11.022;2022-08-01T07:57:24;3.33;;;1.73;;
28836;SDS011;50669;50.982;11.022;2022-08-01T07:59:50;2.47;;;1.67;;
28836;SDS011;50669;50.982;11.022;2022-08-01T08:02:16;1.75;;;1.55;;
28836;SDS011;50669;50.982;11.022;2022-08-01T08:04:42;1.35;;;1.25;;
28836;SDS011;50669;50.982;11.022;2022-08-01T08:07:08;2.05;;;1.23;;
28836;SDS011;50669;50.982;11.022;2022-08-01T08:09:33;1.27;;;1.02;;
28836;SDS011;50669;50.982;11.022;2022-08-01T08:11:59;10.93;;;1.40;;
28836;SDS011;50669;50.982;11.022;2022-08-01T08:14:27;2.30;;;1.17;;
28836;SDS011;50669;50.982;11.022;2022-08-01T08:16:54;1.58;;;1.20;;
28836;SDS011;50669;50.982;11.022;2022-08-01T08:19:19;2.17;;;1.02;;
28836;SDS011;50669;50.982;11.022;2022-08-01T08:21:45;2.83;;;1.10;;
28836;SDS011;50669;50.982;11.022;2022-08-01T08:24:11;1.23;;;0.73;;
28836;SDS011;50669;50.982;11.022;2022-08-01T08:26:49;0.88;;;0.68;;
28836;SDS011;50669;50.982;11.022;2022-08-01T08:29:19;2.50;;;0.82;;
28836;SDS011;50669;50.982;11.022;2022-08-01T08:31:48;1.02;;;0.80;;
28836;SDS011;50669;50.982;11.022;2022-08-01T08:34:16;2.97;;;1.30;;
28836;SDS011;50669;50.982;11.022;2022-08-01T08:36:42;0.93;;;0.70;;
28836;SDS011;50669;50.982;11.022;2022-08-01T08:39:10;0.95;;;0.60;;
28836;SDS011;50669;50.982;11.022;2022-08-01T08:41:38;0.60;;;0.60;;
28836;SDS011;50669;50.982;11.022;2022-08-01T08:44:06;0.73;;;0.73;;
28836;SDS011;50669;50.982;11.022;2022-08-01T08:46:33;1.45;;;0.60;;
28836;SDS011;50669;50.982;11.022;2022-08-01T08:49:03;1.27;;;0.50;;
28836;SDS011;50669;50.982;11.022;2022-08-01T08:51:30;1.02;;;0.63;;
28836;SDS011;50669;50.982;11.022;2022-08-01T08:53:58;1.33;;;0.80;;
28836;SDS011;50669;50.982;11.022;2022-08-01T08:56:26;2.20;;;0.82;;
28836;SDS011;50669;50.982;11.022;2022-08-01T08:58:58;1.20;;;0.80;;
28836;SDS011;50669;50.982;11.022;2022-08-01T09:01:26;2.15;;;0.60;;
28836;SDS011;50669;50.982;11.022;2022-08-01T09:03:52;1.10;;;0.70;;
28836;SDS011;50669;50.982;11.022;2022-08-01T09:06:21;0.85;;;0.80;;
28836;SDS011;50669;50.982;11.022;2022-08-01T09:08:47;0.73;;;0.70;;
28836;SDS011;50669;50.982;11.022;2022-08-01T09:11:12;1.25;;;0.77;;
28836;SDS011;50669;50.982;11.022;2022-08-01T09:13:38;11.65;;;2.00;;
28836;SDS011;50669;50.982;11.022;2022-08-01T09:16:04;2.67;;;0.93;;
28836;SDS011;50669;50.982;11.022;2022-08-01T09:18:37;2.05;;;0.65;;
28836;SDS011;50669;50.982;11.022;2022-08-01T09:21:09;1.63;;;0.85;;
28836;SDS011;50669;50.982;11.022;2022-08-01T09:26:21;2.42;;;0.80;;
28836;SDS011;50669;50.982;11.022;2022-08-01T09:28:55;0.85;;;0.63;;
28836;SDS011;50669;50.982;11.022;2022-08-01T09:31:21;0.68;;;0.45;;
28836;SDS011;50669;50.982;11.022;2022-08-01T09:33:57;1.27;;;0.75;;
28836;SDS011;50669;50.982;11.022;2022-08-01T09:39:16;1.48;;;0.60;;
28836;SDS011;50669;50.982;11.022;2022-08-01T09:41:47;1.90;;;0.68;;
28836;SDS011;50669;50.982;11.022;2022-08-01T09:44:13;5.05;;;0.82;;
28836;SDS011;50669;50.982;11.022;2022-08-01T09:46:55;4.75;;;0.80;;
28836;SDS011;50669;50.982;11.022;2022-08-01T09:52:11;5.40;;;1.40;;
28836;SDS011;50669;50.982;11.022;2022-08-01T09:57:26;1.15;;;0.70;;
28836;SDS011;50669;50.982;11.022;2022-08-01T09:59:54;4.13;;;1.00;;
28836;SDS011;50669;50.982;11.022;2022-08-01T10:02:29;8.10;;;1.63;;
28836;SDS011;50669;50.982;11.022;2022-08-01T10:05:02;4.40;;;0.98;;
28836;SDS011;50669;50.982;11.022;2022-08-01T10:07:29;1.90;;;1.08;;
28836;SDS011;50669;50.982;11.022;2022-08-01T10:09:55;1.10;;;0.70;;
28836;SDS011;50669;50.982;11.022;2022-08-01T10:12:38;4.07;;;0.73;;
28836;SDS011;50669;50.982;11.022;2022-08-01T10:15:06;4.20;;;0.70;;
28836;SDS011;50669;50.982;11.022;2022-08-01T10:17:32;1.33;;;0.60;;
28836;SDS011;50669;50.982;11.022;2022-08-01T10:20:04;1.38;;;0.75;;
28836;SDS011;50669;50.982;11.022;2022-08-01T10:22:30;0.98;;;0.70;;
28836;SDS011;50669;50.982;11.022;2022-08-01T10:24:58;1.05;;;0.70;;
28836;SDS011;50669;50.982;11.022;2022-08-01T10:27:28;0.95;;;0.80;;
28836;SDS011;50669;50.982;11.022;2022-08-01T10:30:03;1.52;;;0.70;;
28836;SDS011;50669;50.982;11.022;2022-08-01T10:32:32;1.35;;;0.85;;
28836;SDS011;50669;50.982;11.022;2022-08-01T10:35:00;0.85;;;0.60;;
28836;SDS011;50669;50.982;11.022;2022-08-01T10:37:28;0.60;;;0.60;;
28836;SDS011;50669;50.982;11.022;2022-08-01T10:39:54;1.33;;;0.90;;
28836;SDS011;50669;50.982;11.022;2022-08-01T10:42:24;2.30;;;0.70;;
28836;SDS011;50669;50.982;11.022;2022-08-01T10:44:52;0.60;;;0.60;;
28836;SDS011;50669;50.982;11.022;2022-08-01T10:47:24;2.00;;;0.70;;
28836;SDS011;50669;50.982;11.022;2022-08-01T10:50:17;1.17;;;0.73;;
28836;SDS011;50669;50.982;11.022;2022-08-01T10:53:03;2.17;;;0.63;;
28836;SDS011;50669;50.982;11.022;2022-08-01T10:55:44;4.00;;;0.90;;
28836;SDS011;50669;50.982;11.022;2022-08-01T10:58:10;5.57;;;1.13;;
28836;SDS011;50669;50.982;11.022;2022-08-01T11:00:36;1.05;;;0.40;;
28836;SDS011;50669;50.982;11.022;2022-08-01T11:03:02;0.50;;;0.50;;
28836;SDS011;50669;50.982;11.022;2022-08-01T11:05:32;1.80;;;0.52;;
28836;SDS011;50669;50.982;11.022;2022-08-01T11:08:21;1.58;;;0.60;;
28836;SDS011;50669;50.982;11.022;2022-08-01T11:10:47;1.92;;;0.50;;
28836;SDS011;50669;50.982;11.022;2022-08-01T11:16:37;0.47;;;0.40;;
28836;SDS011;50669;50.982;11.022;2022-08-01T11:19:07;0.80;;;0.40;;
28836;SDS011;50669;50.982;11.022;2022-08-01T11:27:28;0.50;;;0.50;;
28836;SDS011;50669;50.982;11.022;2022-08-01T11:32:51;1.63;;;0.50;;
28836;SDS011;50669;50.982;11.022;2022-08-01T11:35:24;1.73;;;0.68;;
28836;SDS011;50669;50.982;11.022;2022-08-01T11:37:52;4.10;;;0.40;;
28836;SDS011;50669;50.982;11.022;2022-08-01T11:40:24;2.63;;;0.60;;
28836;SDS011;50669;50.982;11.022;2022-08-01T11:45:53;1.10;;;0.52;;
28836;SDS011;50669;50.982;11.022;2022-08-01T11:48:29;0.50;;;0.40;;
28836;SDS011;50669;50.982;11.022;2022-08-01T11:50:59;0.63;;;0.43;;
28836;SDS011;50669;50.982;11.022;2022-08-01T11:53:25;0.75;;;0.40;;
28836;SDS011;50669;50.982;11.022;2022-08-01T11:55:54;4.25;;;0.60;;
28836;SDS011;50669;50.982;11.022;2022-08-01T11:58:25;3.25;;;0.60;;
28836;SDS011;50669;50.982;11.022;2022-08-01T12:00:55;6.93;;;4.10;;
28836;SDS011;50669;50.982;11.022;2022-08-01T12:03:30;3.35;;;2.30;;
28836;SDS011;50669;50.982;11.022;2022-08-01T12:05:57;3.40;;;0.80;;
28836;SDS011;50669;50.982;11.022;2022-08-01T12:08:30;0.88;;;0.60;;
28836;SDS011;50669;50.982;11.022;2022-08-01T12:11:03;0.68;;;0.50;;
28836;SDS011;50669;50.982;11.022;2022-08-01T12:13:40;0.95;;;0.45;;
28836;SDS011;50669;50.982;11.022;2022-08-01T12:16:08;2.92;;;1.35;;
28836;SDS011;50669;50.982;11.022;2022-08-01T12:18:41;2.42;;;0.60;;
28836;SDS011;50669;50.982;11.022;2022-08-01T12:21:08;0.93;;;0.60;;
28836;SDS011;50669;50.982;11.022;2022-08-01T12:23:36;2.97;;;0.60;;
28836;SDS011;50669;50.982;11.022;2022-08-01T12:26:02;5.32;;;0.80;;
28836;SDS011;50669;50.982;11.022;2022-08-01T12:28:28;1.27;;;0.40;;
28836;SDS011;50669;50.982;11.022;2022-08-01T12:30:56;1.30;;;0.50;;
28836;SDS011;50669;50.982;11.022;2022-08-01T12:33:22;1.73;;;0.40;;
28836;SDS011;50669;50.982;11.022;2022-08-01T12:35:48;1.13;;;0.52;;
28836;SDS011;50669;50.982;11.022;2022-08-01T12:38:18;1.77;;;0.50;;
28836;SDS011;50669;50.982;11.022;2022-08-01T12:40:47;2.05;;;0.50;;
28836;SDS011;50669;50.982;11.022;2022-08-01T12:43:22;1.08;;;0.60;;
28836;SDS011;50669;50.982;11.022;2022-08-01T12:45:50;1.67;;;0.98;;
28836;SDS011;50669;50.982;11.022;2022-08-01T12:48:18;0.43;;;0.43;;
28836;SDS011;50669;50.982;11.022;2022-08-01T12:50:45;2.28;;;0.52;;
28836;SDS011;50669;50.982;11.022;2022-08-01T12:53:15;1.48;;;0.68;;
28836;SDS011;50669;50.982;11.022;2022-08-01T12:55:54;1.73;;;0.63;;
28836;SDS011;50669;50.982;11.022;2022-08-01T12:58:22;0.40;;;0.40;;
28836;SDS011;50669;50.982;11.022;2022-08-01T13:01:01;3.33;;;1.27;;
28836;SDS011;50669;50.982;11.022;2022-08-01T13:03:31;0.88;;;0.57;;
28836;SDS011;50669;50.982;11.022;2022-08-01T13:05:57;1.05;;;0.50;;
28836;SDS011;50669;50.982;11.022;2022-08-01T13:11:03;0.40;;;0.40;;
28836;SDS011;50669;50.982;11.022;2022-08-01T13:16:05;0.38;;;0.38;;
28836;SDS011;50669;50.982;11.022;2022-08-01T13:18:32;0.50;;;0.40;;
28836;SDS011;50669;50.982;11.022;2022-08-01T13:21:16;0.73;;;0.43;;
28836;SDS011;50669;50.982;11.022;2022-08-01T13:29:04;2.80;;;0.63;;
28836;SDS011;50669;50.982;11.022;2022-08-01T13:31:35;0.40;;;0.40;;
28836;SDS011;50669;50.982;11.022;2022-08-01T13:34:02;0.77;;;0.68;;
28836;SDS011;50669;50.982;11.022;2022-08-01T13:36:28;1.60;;;0.50;;
28836;SDS011;50669;50.982;11.022;2022-08-01T13:38:55;1.08;;;0.60;;
28836;SDS011;50669;50.982;11.022;2022-08-01T13:41:39;1.23;;;0.50;;
28836;SDS011;50669;50.982;11.022;2022-08-01T13:44:08;1.10;;;0.50;;
28836;SDS011;50669;50.982;11.022;2022-08-01T13:46:34;3.85;;;0.45;;
28836;SDS011;50669;50.982;11.022;2022-08-01T13:49:03;0.50;;;0.50;;
28836;SDS011;50669;50.982;11.022;2022-08-01T13:51:29;1.00;;;0.90;;
28836;SDS011;50669;50.982;11.022;2022-08-01T13:53:55;1.77;;;0.70;;
28836;SDS011;50669;50.982;11.022;2022-08-01T13:56:21;0.70;;;0.70;;
28836;SDS011;50669;50.982;11.022;2022-08-01T13:58:51;0.43;;;0.43;;
28836;SDS011;50669;50.982;11.022;2022-08-01T14:01:20;0.88;;;0.50;;
28836;SDS011;50669;50.982;11.022;2022-08-01T14:03:46;0.82;;;0.82;;
28836;SDS011;50669;50.982;11.022;2022-08-01T14:06:12;5.28;;;1.00;;
28836;SDS011;50669;50.982;11.022;2022-08-01T14:08:42;2.47;;;0.63;;
28836;SDS011;50669;50.982;11.022;2022-08-01T14:11:08;1.63;;;0.55;;
28836;SDS011;50669;50.982;11.022;2022-08-01T14:13:38;0.80;;;0.63;;
28836;SDS011;50669;50.982;11.022;2022-08-01T14:16:05;1.50;;;1.00;;
28836;SDS011;50669;50.982;11.022;2022-08-01T14:18:32;2.50;;;0.70;;
28836;SDS011;50669;50.982;11.022;2022-08-01T14:21:00;0.85;;;0.50;;
28836;SDS011;50669;50.982;11.022;2022-08-01T14:23:26;0.77;;;0.57;;
28836;SDS011;50669;50.982;11.022;2022-08-01T14:25:52;1.42;;;0.43;;
28836;SDS011;50669;50.982;11.022;2022-08-01T14:28:18;0.65;;;0.40;;
28836;SDS011;50669;50.982;11.022;2022-08-01T14:30:46;1.00;;;0.60;;
28836;SDS011;50669;50.982;11.022;2022-08-01T14:33:14;1.17;;;0.98;;
28836;SDS011;50669;50.982;11.022;2022-08-01T14:35:45;2.85;;;0.90;;
28836;SDS011;50669;50.982;11.022;2022-08-01T14:38:10;0.57;;;0.43;;
28836;SDS011;50669;50.982;11.022;2022-08-01T14:40:36;0.50;;;0.50;;
28836;SDS011;50669;50.982;11.022;2022-08-01T14:43:01;1.33;;;0.60;;
28836;SDS011;50669;50.982;11.022;2022-08-01T14:45:29;0.60;;;0.60;;
28836;SDS011;50669;50.982;11.022;2022-08-01T14:47:55;2.90;;;1.05;;
28836;SDS011;50669;50.982;11.022;2022-08-01T14:50:21;0.55;;;0.55;;
28836;SDS011;50669;50.982;11.022;2022-08-01T14:52:47;1.98;;;0.82;;
28836;SDS011;50669;50.982;11.022;2022-08-01T14:55:15;1.25;;;0.80;;
28836;SDS011;50669;50.982;11.022;2022-08-01T14:57:43;0.70;;;0.70;;
28836;SDS011;50669;50.982;11.022;2022-08-01T15:00:11;1.55;;;0.65;;
28836;SDS011;50669;50.982;11.022;2022-08-01T15:02:42;0.70;;;0.70;;
28836;SDS011;50669;50.982;11.022;2022-08-01T15:05:08;2.47;;;0.70;;
28836;SDS011;50669;50.982;11.022;2022-08-01T15:07:35;2.38;;;0.80;;
28836;SDS011;50669;50.982;11.022;2022-08-01T15:10:02;3.90;;;0.65;;
28836;SDS011;50669;50.982;11.022;2022-08-01T15:12:31;1.58;;;0.70;;
28836;SDS011;50669;50.982;11.022;2022-08-01T15:14:57;1.65;;;0.60;;
28836;SDS011;50669;50.982;11.022;2022-08-01T15:17:23;2.10;;;0.80;;
28836;SDS011;50669;50.982;11.022;2022-08-01T15:20:00;1.85;;;0.73;;
28836;SDS011;50669;50.982;11.022;2022-08-01T15:22:29;0.77;;;0.77;;
28836;SDS011;50669;50.982;11.022;2022-08-01T15:24:56;0.50;;;0.50;;
28836;SDS011;50669;50.982;11.022;2022-08-01T15:27:26;1.50;;;0.60;;
28836;SDS011;50669;50.982;11.022;2022-08-01T15:29:52;2.85;;;0.75;;
28836;SDS011;50669;50.982;11.022;2022-08-01T15:32:19;2.47;;;0.70;;
28836;SDS011;50669;50.982;11.022;2022-08-01T15:34:45;1.25;;;0.60;;
28836;SDS011;50669;50.982;11.022;2022-08-01T15:37:13;2.78;;;0.57;;
28836;SDS011;50669;50.982;11.022;2022-08-01T15:39:39;0.63;;;0.60;;